Time;durP1;ratioP1;P1;durP2;ratioP2;P2;SDS_P1;SDS_P2;PMS_P1;PMS_P2;Temp;Humidity;BMP_temperature;BMP_pressure;BME280_temperature;BME280_humidity;BME280_pressure;Samples;Min_cycle;Max_cycle;Signal;HPM_P1;HPM_P2
2021/08/09 00:00:25;;;;;;;15.55;6.18;;;;;;;17.82;82.96;100613.28;5091265;28;20024;-79
2021/08/09 00:02:51;;;;;;;14.10;6.53;;;;;;;17.82;82.92;100616.03;5090226;28;20036;-79
2021/08/09 00:05:16;;;;;;;16.92;6.13;;;;;;;17.82;82.83;100618.78;5079594;28;20523;-79
2021/08/09 00:07:42;;;;;;;19.83;7.20;;;;;;;17.83;82.90;100614.88;5091146;28;20024;-78
2021/08/09 00:10:08;;;;;;;14.02;7.03;;;;;;;17.82;82.56;100618.78;5091754;28;20122;-79
2021/08/09 00:12:33;;;;;;;11.70;6.07;;;;;;;17.81;82.63;100633.69;5077427;28;20161;-79
2021/08/09 00:14:59;;;;;;;10.63;5.57;;;;;;;17.80;82.61;100621.06;5089814;28;20265;-79
2021/08/09 00:17:24;;;;;;;13.45;6.63;;;;;;;17.79;82.54;100631.28;5089699;28;20023;-79
2021/08/09 00:19:49;;;;;;;12.10;5.82;;;;;;;17.75;82.36;100627.50;5090740;28;20370;-79
2021/08/09 00:22:15;;;;;;;12.23;5.90;;;;;;;17.71;81.99;100630.13;5087483;28;20027;-79
2021/08/09 00:24:41;;;;;;;18.15;6.20;;;;;;;17.68;82.13;100630.78;5088740;28;20069;-79
2021/08/09 00:27:07;;;;;;;10.40;5.25;;;;;;;17.68;82.73;100647.31;5087197;28;20024;-80
2021/08/09 00:29:33;;;;;;;12.52;6.82;;;;;;;17.68;82.63;100652.03;5088346;28;20482;-79
2021/08/09 00:31:58;;;;;;;17.55;7.00;;;;;;;17.66;82.46;100644.06;5074022;28;20032;-80
2021/08/09 00:34:24;;;;;;;16.40;6.03;;;;;;;17.61;82.19;100641.47;5070995;28;20040;-80
2021/08/09 00:36:49;;;;;;;17.38;6.47;;;;;;;17.59;82.12;100649.25;5070694;28;20040;-79
2021/08/09 00:39:14;;;;;;;9.73;5.80;;;;;;;17.56;82.19;100649.91;5067649;28;20163;-80
2021/08/09 00:41:40;;;;;;;14.10;5.85;;;;;;;17.53;81.80;100650.56;5073461;28;20016;-79
2021/08/09 00:44:05;;;;;;;13.75;5.35;;;;;;;17.49;81.78;100663.38;5089708;28;20024;-79
2021/08/09 00:46:32;;;;;;;18.45;6.13;;;;;;;17.47;82.13;100658.19;5087720;28;20024;-79
2021/08/09 00:48:57;;;;;;;21.92;6.35;;;;;;;17.46;82.20;100662.06;5092674;28;20099;-80
2021/08/09 00:51:23;;;;;;;17.05;6.07;;;;;;;17.47;82.55;100657.38;5084783;28;20156;-79
2021/08/09 00:53:48;;;;;;;19.65;6.15;;;;;;;17.47;82.32;100658.19;5090860;28;20028;-79
2021/08/09 00:56:14;;;;;;;17.10;5.90;;;;;;;17.43;82.53;100659.13;5084879;28;20036;-79
2021/08/09 00:58:39;;;;;;;19.23;5.63;;;;;;;17.40;82.61;100654.28;5087394;28;20020;-79
2021/08/09 01:01:05;;;;;;;16.73;6.32;;;;;;;17.38;82.81;100668.41;5088984;28;20529;-79
2021/08/09 01:03:30;;;;;;;23.13;6.35;;;;;;;17.38;83.09;100675.81;5090954;28;20032;-79
2021/08/09 01:05:56;;;;;;;15.05;6.35;;;;;;;17.34;83.31;100664.66;5091601;28;20082;-79
2021/08/09 01:09:02;;;;;;;19.50;6.85;;;;;;;17.32;83.49;100675.16;5090145;28;20016;-79
2021/08/09 01:11:32;;;;;;;20.17;6.05;;;;;;;17.29;83.55;100662.84;5069742;28;20394;-78
2021/08/09 01:14:24;;;;;;;26.92;7.28;;;;;;;17.27;84.07;100676.16;5069444;28;20504;-78
2021/08/09 01:16:49;;;;;;;17.17;6.70;;;;;;;17.25;84.25;100681.16;5054602;28;20032;-77
2021/08/09 01:19:40;;;;;;;19.05;6.53;;;;;;;17.20;84.22;100678.56;5073469;28;20043;-78
2021/08/09 01:22:31;;;;;;;23.45;7.70;;;;;;;17.17;84.40;100676.44;5083484;28;20105;-78
2021/08/09 01:25:12;;;;;;;22.25;6.13;;;;;;;17.16;84.61;100677.59;5088145;28;20020;-80
2021/08/09 01:27:37;;;;;;;16.35;6.47;;;;;;;17.12;84.61;100673.03;5087434;28;20465;-79
2021/08/09 01:30:07;;;;;;;19.75;6.70;;;;;;;17.10;84.81;100676.09;5067613;28;20024;-79
2021/08/09 01:32:36;;;;;;;23.10;7.00;;;;;;;17.07;84.91;100671.25;5070211;28;20097;-79
2021/08/09 01:35:02;;;;;;;24.02;6.43;;;;;;;17.07;85.11;100682.25;5070713;28;20043;-78
2021/08/09 01:37:27;;;;;;;21.30;7.30;;;;;;;17.06;85.27;100683.41;5069721;28;20052;-79
2021/08/09 01:39:53;;;;;;;25.00;6.80;;;;;;;17.03;85.09;100682.09;5071144;28;20048;-79
2021/08/09 01:42:18;;;;;;;23.48;6.97;;;;;;;17.02;85.13;100686.00;5069935;28;20116;-79
2021/08/09 01:44:43;;;;;;;17.63;6.80;;;;;;;17.04;85.23;100688.41;5072305;28;20036;-79
2021/08/09 01:47:10;;;;;;;19.58;6.65;;;;;;;17.03;85.37;100695.88;5088342;28;20032;-79
2021/08/09 01:49:36;;;;;;;22.50;5.97;;;;;;;17.02;85.25;100696.16;5074006;28;20572;-79
2021/08/09 01:52:01;;;;;;;27.05;7.43;;;;;;;17.00;85.50;100693.75;5049545;28;20043;-79
2021/08/09 01:54:27;;;;;;;21.17;6.38;;;;;;;17.02;85.53;100696.16;5092156;28;20031;-79
2021/08/09 01:56:52;;;;;;;20.55;6.30;;;;;;;17.03;85.91;100697.81;5086484;28;20028;-79
2021/08/09 01:59:22;;;;;;;19.60;6.28;;;;;;;17.03;85.69;100693.09;5071424;28;20032;-79
2021/08/09 02:01:50;;;;;;;19.88;6.50;;;;;;;17.06;85.83;100703.47;5072704;28;20031;-79
2021/08/09 02:04:16;;;;;;;25.38;7.55;;;;;;;17.11;85.63;100699.78;5072683;28;20832;-79
2021/08/09 02:06:43;;;;;;;26.60;7.38;;;;;;;17.14;85.83;100703.84;5072957;28;20021;-79
2021/08/09 02:09:08;;;;;;;27.73;7.65;;;;;;;17.14;85.82;100707.41;5092654;28;20024;-79
2021/08/09 02:11:49;;;;;;;23.20;6.82;;;;;;;17.12;85.63;100701.38;5087363;28;20121;-79
2021/08/09 02:14:15;;;;;;;23.63;6.50;;;;;;;17.11;85.35;100694.28;5093347;28;20028;-79
2021/08/09 02:16:45;;;;;;;19.88;6.55;;;;;;;17.11;85.17;100699.78;5089371;28;20037;-79
2021/08/09 02:19:25;;;;;;;22.10;6.45;;;;;;;17.14;85.29;100698.34;5073435;28;20035;-79
2021/08/09 02:21:51;;;;;;;24.65;7.38;;;;;;;17.15;85.37;100698.00;5072064;28;20039;-79
2021/08/09 02:24:33;;;;;;;19.85;6.15;;;;;;;17.17;85.30;100698.50;5074657;28;20072;-79
2021/08/09 02:27:02;;;;;;;21.83;6.65;;;;;;;17.20;85.25;100706.13;5077119;28;20027;-79
2021/08/09 02:29:29;;;;;;;23.02;5.82;;;;;;;17.24;85.46;100720.06;5092891;28;20024;-79
2021/08/09 02:31:55;;;;;;;23.58;7.03;;;;;;;17.23;85.59;100708.22;5089559;28;20032;-79
2021/08/09 02:34:21;;;;;;;26.48;6.78;;;;;;;17.26;85.66;100712.28;5057281;28;20081;-79
2021/08/09 02:36:46;;;;;;;18.95;7.00;;;;;;;17.28;85.46;100721.03;5070915;28;20028;-79
2021/08/09 02:39:13;;;;;;;18.13;7.60;;;;;;;17.29;85.41;100722.66;5071429;28;20488;-79
2021/08/09 02:41:39;;;;;;;21.10;6.55;;;;;;;17.28;84.93;100719.09;5072007;28;20028;-78
2021/08/09 02:44:05;;;;;;;19.38;5.88;;;;;;;17.28;85.05;100721.84;5060871;28;20145;-79
2021/08/09 02:46:31;;;;;;;24.13;7.68;;;;;;;17.29;85.28;100717.94;5091842;28;20055;-78
2021/08/09 02:48:56;;;;;;;23.70;7.57;;;;;;;17.30;85.24;100716.03;5090863;28;20115;-78
2021/08/09 02:51:22;;;;;;;22.55;7.63;;;;;;;17.27;84.93;100711.16;5072591;28;20025;-78
2021/08/09 02:53:47;;;;;;;20.27;6.93;;;;;;;17.24;85.00;100723.63;5071947;28;20431;-78
2021/08/09 02:56:13;;;;;;;22.75;6.28;;;;;;;17.22;84.86;100717.63;5092516;28;20019;-78
2021/08/09 02:58:38;;;;;;;25.85;6.90;;;;;;;17.20;84.85;100714.38;5093008;28;20042;-78
2021/08/09 03:01:04;;;;;;;19.23;6.10;;;;;;;17.20;84.67;100719.88;5090328;28;20028;-78
2021/08/09 03:03:30;;;;;;;23.20;7.15;;;;;;;17.18;84.61;100722.16;5092365;28;20023;-78
2021/08/09 03:05:57;;;;;;;24.42;6.85;;;;;;;17.18;84.33;100713.06;5088263;28;20039;-79
2021/08/09 03:08:22;;;;;;;31.20;7.82;;;;;;;17.17;84.37;100734.31;5085299;28;20035;-78
2021/08/09 03:10:48;;;;;;;21.50;5.95;;;;;;;17.18;84.48;100729.59;5090882;28;20028;-78
2021/08/09 03:13:13;;;;;;;38.30;7.72;;;;;;;17.17;84.19;100731.56;5082951;28;20060;-78
2021/08/09 03:15:41;;;;;;;18.95;5.78;;;;;;;17.16;83.89;100746.47;5088731;28;20031;-79
2021/08/09 03:18:06;;;;;;;36.17;6.72;;;;;;;17.17;83.88;100731.56;5089127;28;20505;-78
2021/08/09 03:20:31;;;;;;;33.67;7.72;;;;;;;17.17;83.66;100731.56;5087220;28;20036;-79
2021/08/09 03:22:58;;;;;;;32.17;7.53;;;;;;;17.18;83.96;100733.16;5089273;28;20035;-79
2021/08/09 03:25:23;;;;;;;30.55;8.15;;;;;;;17.19;83.74;100729.28;5093427;28;20020;-79
2021/08/09 03:27:49;;;;;;;21.27;7.25;;;;;;;17.21;83.75;100731.72;5092035;28;20035;-79
2021/08/09 03:30:16;;;;;;;22.15;5.65;;;;;;;17.21;83.56;100729.75;5090020;28;20432;-79
2021/08/09 03:32:42;;;;;;;32.03;6.95;;;;;;;17.24;83.53;100731.06;5086868;28;20028;-78
2021/08/09 03:35:07;;;;;;;26.92;6.80;;;;;;;17.23;82.95;100730.25;5085690;28;20038;-79
2021/08/09 03:37:33;;;;;;;18.73;7.18;;;;;;;17.24;83.12;100742.94;5088455;28;20024;-79
2021/08/09 03:39:58;;;;;;;25.27;6.78;;;;;;;17.23;82.96;100741.28;5092289;28;20044;-79
2021/08/09 03:42:24;;;;;;;28.77;6.50;;;;;;;17.26;83.01;100729.63;5074153;28;20094;-78
2021/08/09 03:44:49;;;;;;;23.77;6.20;;;;;;;17.29;83.29;100740.00;5070505;28;20032;-78
2021/08/09 03:47:15;;;;;;;18.67;6.68;;;;;;;17.30;82.94;100736.13;5071235;28;20085;-79
2021/08/09 03:49:40;;;;;;;22.30;5.50;;;;;;;17.33;83.18;100737.44;5086309;27;20036;-79
2021/08/09 03:52:06;;;;;;;24.50;7.13;;;;;;;17.35;82.54;100737.94;5088108;28;20024;-78
2021/08/09 03:54:31;;;;;;;24.02;6.32;;;;;;;17.37;82.64;100743.09;5092063;28;20397;-79
2021/08/09 03:56:56;;;;;;;22.30;6.65;;;;;;;17.38;82.48;100739.22;5089730;28;20031;-78
2021/08/09 03:59:22;;;;;;;26.38;6.22;;;;;;;17.40;82.63;100734.19;5082755;28;20028;-78
2021/08/09 04:01:49;;;;;;;26.80;5.85;;;;;;;17.42;82.44;100753.97;5090343;28;20507;-78
2021/08/09 04:04:15;;;;;;;19.42;6.00;;;;;;;17.42;82.28;100748.47;5090746;28;20076;-79
2021/08/09 04:06:40;;;;;;;18.17;5.65;;;;;;;17.44;82.55;100751.72;5087981;28;20032;-79
2021/08/09 04:09:07;;;;;;;18.10;5.90;;;;;;;17.46;82.66;100747.53;5084116;28;20024;-78
2021/08/09 04:11:33;;;;;;;22.63;6.47;;;;;;;17.47;82.62;100748.31;5091524;28;20032;-78
2021/08/09 04:13:59;;;;;;;21.88;5.75;;;;;;;17.48;82.69;100758.22;5086493;28;20041;-79
2021/08/09 04:16:25;;;;;;;27.02;6.70;;;;;;;17.49;82.60;100757.91;5088994;28;20036;-79
2021/08/09 04:18:50;;;;;;;27.77;5.93;;;;;;;17.48;82.46;100755.44;5089653;28;20024;-79
2021/08/09 04:21:16;;;;;;;26.77;7.35;;;;;;;17.51;82.32;100757.56;5082894;28;20024;-79
2021/08/09 04:23:41;;;;;;;22.58;5.90;;;;;;;17.52;82.02;100748.19;5090615;28;20027;-79
2021/08/09 04:26:06;;;;;;;23.48;6.53;;;;;;;17.56;82.32;100762.91;5091311;28;20047;-79
2021/08/09 04:28:32;;;;;;;25.58;7.05;;;;;;;17.59;82.01;100765.03;5082585;28;20043;-77
2021/08/09 04:30:57;;;;;;;25.45;6.35;;;;;;;17.62;81.64;100756.13;5090992;28;20090;-78
2021/08/09 04:33:22;;;;;;;21.52;5.57;;;;;;;17.65;81.94;100766.53;5086095;28;20537;-79
2021/08/09 04:35:48;;;;;;;19.90;5.82;;;;;;;17.68;81.82;100762.31;5092714;28;20028;-79
2021/08/09 04:38:15;;;;;;;17.88;4.85;;;;;;;17.67;81.11;100767.00;5090803;28;20023;-78
2021/08/09 04:40:40;;;;;;;19.40;5.72;;;;;;;17.68;81.23;100767.81;5091192;28;20044;-78
2021/08/09 04:43:06;;;;;;;24.30;6.35;;;;;;;17.71;81.38;100776.25;5075995;28;20081;-78
2021/08/09 04:45:32;;;;;;;20.15;6.07;;;;;;;17.73;81.18;100771.25;5086350;28;20024;-78
2021/08/09 04:47:58;;;;;;;16.42;6.07;;;;;;;17.72;81.03;100775.13;5091535;28;20072;-79
2021/08/09 04:50:24;;;;;;;16.85;5.45;;;;;;;17.73;81.33;100771.25;5091046;28;21597;-79
2021/08/09 04:52:49;;;;;;;19.48;5.50;;;;;;;17.74;81.37;100772.03;5088389;28;20374;-79
2021/08/09 04:55:14;;;;;;;20.45;5.80;;;;;;;17.73;81.06;100776.75;5088084;28;20069;-79
2021/08/09 04:57:40;;;;;;;24.92;6.35;;;;;;;17.73;81.00;100787.78;5091841;28;20028;-79
2021/08/09 05:00:06;;;;;;;19.23;5.80;;;;;;;17.76;80.70;100780.81;5088438;28;20030;-79
2021/08/09 05:02:32;;;;;;;16.88;5.82;;;;;;;17.81;80.59;100772.41;5087178;28;20043;-79
2021/08/09 05:04:58;;;;;;;25.55;6.45;;;;;;;17.87;80.52;100775.81;5089585;28;20489;-79
2021/08/09 05:07:23;;;;;;;16.58;6.75;;;;;;;17.89;80.46;100790.91;5091780;28;20027;-79
2021/08/09 05:09:50;;;;;;;15.90;6.22;;;;;;;17.93;80.33;100785.56;5084320;28;20028;-79
2021/08/09 05:12:15;;;;;;;19.67;5.72;;;;;;;17.97;80.41;100778.25;5088412;28;20023;-79
2021/08/09 05:14:41;;;;;;;18.63;5.85;;;;;;;17.97;80.02;100779.06;5087493;28;20022;-79
2021/08/09 05:17:06;;;;;;;17.60;5.53;;;;;;;17.95;79.94;100783.28;5087589;28;20488;-79
2021/08/09 05:19:33;;;;;;;16.20;5.70;;;;;;;17.96;79.83;100784.91;5088798;28;20422;-79
2021/08/09 05:21:58;;;;;;;18.95;5.70;;;;;;;17.98;80.03;100777.13;5080220;28;20116;-79
2021/08/09 05:24:23;;;;;;;16.98;6.03;;;;;;;18.00;79.83;100782.31;5086131;28;20024;-79
2021/08/09 05:26:49;;;;;;;14.95;6.28;;;;;;;17.99;79.96;100781.50;5094228;28;20084;-78
2021/08/09 05:29:14;;;;;;;17.95;5.55;;;;;;;18.05;79.78;100785.72;5082065;28;20032;-79
2021/08/09 05:31:40;;;;;;;13.57;5.82;;;;;;;18.05;79.23;100785.72;5085335;28;20085;-78
2021/08/09 05:34:05;;;;;;;17.75;5.50;;;;;;;18.08;78.78;100793.34;5073284;28;20031;-78
2021/08/09 05:36:32;;;;;;;13.85;4.55;;;;;;;18.12;79.04;100791.56;5073907;28;20040;-78
2021/08/09 05:39:00;;;;;;;16.75;5.38;;;;;;;18.14;78.48;100803.09;5072625;28;20023;-78
2021/08/09 05:41:26;;;;;;;14.43;5.32;;;;;;;18.16;78.51;100811.84;5076339;28;20469;-77
2021/08/09 05:43:51;;;;;;;13.07;4.97;;;;;;;18.19;78.69;100800.16;5088442;28;20039;-78
2021/08/09 05:46:16;;;;;;;11.18;4.93;;;;;;;18.27;78.79;100806.81;5079265;28;20032;-78
2021/08/09 05:48:42;;;;;;;14.63;5.55;;;;;;;18.35;78.59;100802.44;5093403;28;20024;-78
2021/08/09 05:51:07;;;;;;;21.65;5.63;;;;;;;18.37;77.98;100800.97;5075501;28;20027;-78
2021/08/09 05:53:33;;;;;;;14.65;5.60;;;;;;;18.33;77.93;100799.19;5092008;28;20378;-78
2021/08/09 05:55:58;;;;;;;16.77;5.47;;;;;;;18.35;77.92;100796.91;5093496;28;20426;-78
2021/08/09 05:58:23;;;;;;;15.95;5.97;;;;;;;18.37;77.44;100802.94;5094083;28;20035;-78
2021/08/09 06:00:49;;;;;;;16.40;6.50;;;;;;;18.33;77.53;100810.22;5091870;28;20023;-78
2021/08/09 06:03:19;;;;;;;13.27;5.30;;;;;;;18.29;77.84;100806.50;5087448;28;20029;-78
2021/08/09 06:05:45;;;;;;;16.73;6.05;;;;;;;18.27;77.87;100806.00;5081394;28;20445;-78
2021/08/09 06:08:10;;;;;;;15.50;5.70;;;;;;;18.26;77.77;100809.91;5092330;28;20039;-79
2021/08/09 06:10:36;;;;;;;16.83;5.85;;;;;;;18.30;78.13;100810.88;5093386;28;20023;-79
2021/08/09 06:13:01;;;;;;;13.80;5.35;;;;;;;18.30;78.02;100810.88;5088553;28;20461;-79
2021/08/09 06:15:27;;;;;;;13.07;5.68;;;;;;;18.33;77.95;100822.09;5092631;28;20461;-79
2021/08/09 06:17:52;;;;;;;12.77;5.07;;;;;;;18.36;78.04;100820.59;5087758;28;20020;-79
2021/08/09 06:20:19;;;;;;;14.48;5.45;;;;;;;18.40;77.86;100818.84;5089054;28;20019;-79
2021/08/09 06:22:44;;;;;;;13.05;5.53;;;;;;;18.44;77.84;100822.53;5088511;28;20077;-79
2021/08/09 06:25:10;;;;;;;14.55;5.13;;;;;;;18.45;77.48;100817.88;5089158;28;20040;-79
2021/08/09 06:27:36;;;;;;;13.95;5.85;;;;;;;18.45;77.08;100824.19;5079976;28;20037;-79
2021/08/09 06:30:02;;;;;;;12.13;4.70;;;;;;;18.46;76.36;100825.81;5072284;28;20035;-78
2021/08/09 06:32:27;;;;;;;13.88;5.13;;;;;;;18.48;75.98;100820.78;5073507;28;20040;-78
2021/08/09 06:34:54;;;;;;;17.58;4.93;;;;;;;18.48;76.01;100823.53;5081875;28;20028;-79
2021/08/09 06:37:20;;;;;;;11.43;4.45;;;;;;;18.50;75.78;100831.50;5093376;28;20032;-79
2021/08/09 06:39:45;;;;;;;11.05;5.68;;;;;;;18.54;75.87;100833.25;5088095;28;20039;-79
2021/08/09 06:42:11;;;;;;;17.25;5.72;;;;;;;18.56;75.30;100827.44;5093613;28;20020;-79
2021/08/09 06:44:36;;;;;;;13.27;5.07;;;;;;;18.52;75.22;100818.97;5085048;28;20039;-79
2021/08/09 06:47:02;;;;;;;10.77;4.78;;;;;;;18.49;74.83;100822.38;5079153;28;20028;-79
2021/08/09 06:49:27;;;;;;;20.52;5.80;;;;;;;18.48;74.78;100818.00;5091233;28;20038;-79
2021/08/09 06:51:53;;;;;;;12.13;5.47;;;;;;;18.52;74.83;100823.69;5079776;28;20047;-81
2021/08/09 06:54:24;;;;;;;15.35;5.32;;;;;;;18.56;74.79;100825.47;5090365;28;20031;-79
2021/08/09 06:56:50;;;;;;;15.95;5.25;;;;;;;18.64;75.25;100819.13;5089190;28;20389;-81
2021/08/09 06:59:16;;;;;;;10.48;4.72;;;;;;;18.64;74.80;100821.88;5089671;28;20473;-81
2021/08/09 07:01:41;;;;;;;11.10;4.43;;;;;;;18.68;74.63;100826.75;5068733;28;20023;-80
2021/08/09 07:04:07;;;;;;;11.10;5.10;;;;;;;18.75;74.26;100824.34;5081185;28;20450;-80
2021/08/09 07:06:32;;;;;;;10.18;4.90;;;;;;;18.82;74.79;100821.88;5077943;28;20032;-78
2021/08/09 07:08:59;;;;;;;13.13;5.18;;;;;;;18.98;74.17;100828.50;5089379;28;20035;-78
2021/08/09 07:11:25;;;;;;;9.35;4.60;;;;;;;19.08;73.73;100839.19;5089127;28;20020;-78
2021/08/09 07:13:52;;;;;;;12.18;5.22;;;;;;;19.16;73.52;100831.22;5090824;28;20035;-77
2021/08/09 07:16:19;;;;;;;14.85;4.70;;;;;;;19.16;73.13;100831.22;5082959;28;20023;-79
2021/08/09 07:18:44;;;;;;;12.43;4.90;;;;;;;19.07;73.09;100831.25;5070470;28;20085;-81
2021/08/09 07:21:12;;;;;;;13.77;5.25;;;;;;;19.03;73.55;100838.56;5081534;28;20036;-78
2021/08/09 07:23:39;;;;;;;11.82;6.03;;;;;;;19.00;73.82;100831.75;5081666;28;20024;-77
2021/08/09 07:26:05;;;;;;;9.48;5.70;;;;;;;19.02;73.94;100837.75;5084735;28;20050;-81
2021/08/09 07:28:30;;;;;;;10.32;5.53;;;;;;;19.03;74.24;100844.91;5083107;28;20480;-78
2021/08/09 07:30:55;;;;;;;12.27;4.88;;;;;;;19.04;73.75;100838.25;5083398;28;20031;-78
2021/08/09 07:33:21;;;;;;;12.95;5.88;;;;;;;18.99;73.61;100843.94;5074577;28;20035;-79
2021/08/09 07:35:46;;;;;;;11.50;5.47;;;;;;;18.99;73.88;100846.72;5080024;28;20056;-79
2021/08/09 07:38:12;;;;;;;13.10;6.18;;;;;;;19.03;74.21;100847.66;5089164;28;20035;-80
2021/08/09 07:40:37;;;;;;;13.48;4.90;;;;;;;19.04;73.90;100851.22;5088561;28;20414;-79
2021/08/09 07:43:03;;;;;;;10.73;5.03;;;;;;;18.97;74.01;100846.22;5086358;28;20016;-78
2021/08/09 07:45:28;;;;;;;16.50;5.22;;;;;;;18.95;74.08;100844.94;5078379;28;20034;-79
2021/08/09 07:47:55;;;;;;;16.25;5.57;;;;;;;18.96;74.00;100844.63;5088200;28;20032;-80
2021/08/09 07:50:20;;;;;;;11.15;4.78;;;;;;;18.95;73.92;100850.44;5086456;28;20031;-80
2021/08/09 07:52:47;;;;;;;9.55;4.80;;;;;;;18.99;74.26;100849.47;5084915;28;20058;-80
2021/08/09 07:55:12;;;;;;;12.98;5.60;;;;;;;19.06;73.91;100858.03;5075484;28;20028;-80
2021/08/09 07:57:38;;;;;;;9.88;4.57;;;;;;;19.12;73.89;100857.88;5074100;28;20947;-79
2021/08/09 08:00:04;;;;;;;10.05;5.32;;;;;;;19.14;73.76;100848.13;5081766;28;20121;-79
2021/08/09 08:02:30;;;;;;;11.10;4.72;;;;;;;19.15;73.48;100851.69;5062593;28;20107;-77
2021/08/09 08:04:55;;;;;;;11.07;4.65;;;;;;;19.13;73.23;100851.22;5079260;28;20069;-76
2021/08/09 08:07:21;;;;;;;13.45;5.63;;;;;;;19.13;72.94;100865.03;5078019;28;20024;-77
2021/08/09 08:09:48;;;;;;;8.32;4.30;;;;;;;19.08;72.19;100849.44;5070805;28;20036;-78
2021/08/09 08:12:14;;;;;;;11.18;4.13;;;;;;;19.06;72.61;100847.00;5079146;28;20392;-78
2021/08/09 08:14:40;;;;;;;14.07;4.35;;;;;;;19.03;72.42;100853.19;5081083;28;20023;-78
2021/08/09 08:17:06;;;;;;;6.10;3.58;;;;;;;19.05;72.37;100847.34;5078977;28;20031;-78
2021/08/09 08:19:32;;;;;;;8.77;3.95;;;;;;;19.07;71.85;100856.94;5083140;28;20639;-80
2021/08/09 08:21:57;;;;;;;9.20;3.40;;;;;;;19.20;71.57;100865.31;5085837;28;20015;-79
2021/08/09 08:24:22;;;;;;;9.40;4.40;;;;;;;19.27;71.20;100860.13;5080865;28;20148;-79
2021/08/09 08:26:48;;;;;;;7.10;3.78;;;;;;;19.28;71.32;100868.06;5089087;28;20024;-79
2021/08/09 08:29:13;;;;;;;10.98;3.75;;;;;;;19.34;70.82;100857.63;5090282;28;20035;-79
2021/08/09 08:31:40;;;;;;;11.48;3.95;;;;;;;19.39;70.20;100853.88;5088331;28;20028;-79
2021/08/09 08:34:06;;;;;;;8.88;3.83;;;;;;;19.32;70.00;100871.00;5085007;28;20024;-78
2021/08/09 08:36:31;;;;;;;10.55;3.25;;;;;;;19.22;69.30;100868.59;5080975;28;20024;-79
2021/08/09 08:38:57;;;;;;;10.02;3.03;;;;;;;19.33;69.14;100864.31;5088647;28;20050;-80
2021/08/09 08:41:22;;;;;;;8.75;2.85;;;;;;;19.41;68.67;100866.22;5083417;28;20020;-79
2021/08/09 08:43:48;;;;;;;10.07;2.83;;;;;;;19.41;68.39;100871.75;5087300;28;20047;-79
2021/08/09 08:46:13;;;;;;;10.93;3.53;;;;;;;19.32;68.55;100872.94;5088681;28;20035;-79
2021/08/09 08:48:39;;;;;;;6.38;2.40;;;;;;;19.18;69.09;100873.13;5074168;28;20354;-80
2021/08/09 08:51:04;;;;;;;9.60;3.20;;;;;;;19.27;69.00;100883.03;5086611;28;20398;-81
2021/08/09 08:53:33;;;;;;;6.55;2.88;;;;;;;19.29;68.82;100869.69;5095013;28;20043;-80
2021/08/09 08:55:59;;;;;;;7.85;2.97;;;;;;;19.24;69.39;100880.94;5092810;28;20123;-79
2021/08/09 08:58:24;;;;;;;10.63;3.65;;;;;;;19.24;69.16;100877.38;5084569;28;20536;-79
2021/08/09 09:00:50;;;;;;;6.57;3.47;;;;;;;19.08;70.08;100879.84;5073770;28;20385;-79
2021/08/09 09:03:20;;;;;;;9.27;2.63;;;;;;;19.24;70.03;100871.84;5076926;28;20104;-79
2021/08/09 09:05:57;;;;;;;7.53;3.45;;;;;;;19.33;68.88;100886.44;5076821;28;20056;-78
2021/08/09 09:08:37;;;;;;;9.15;3.92;;;;;;;19.28;70.14;100884.66;5076171;28;20042;-79
2021/08/09 09:11:03;;;;;;;8.02;3.53;;;;;;;19.26;70.25;100881.41;5074526;28;20024;-79
2021/08/09 09:13:29;;;;;;;8.18;3.17;;;;;;;19.39;70.48;100889.81;5092390;28;20103;-80
2021/08/09 09:15:58;;;;;;;7.78;3.30;;;;;;;19.43;70.18;100886.06;5092755;28;20051;-80
2021/08/09 09:18:23;;;;;;;6.43;3.63;;;;;;;19.42;69.92;100881.66;5085764;28;20077;-79
2021/08/09 09:20:49;;;;;;;11.02;3.00;;;;;;;19.40;69.54;100880.41;5075681;28;20047;-79
2021/08/09 09:23:22;;;;;;;8.95;3.22;;;;;;;19.32;70.08;100892.31;5079128;28;20132;-79
2021/08/09 09:25:49;;;;;;;8.07;3.83;;;;;;;19.38;70.19;100899.25;5091052;28;20043;-80
2021/08/09 09:28:34;;;;;;;6.55;3.20;;;;;;;19.52;69.51;100897.91;5089576;28;20526;-79
2021/08/09 09:31:05;;;;;;;6.78;3.30;;;;;;;19.61;69.18;100897.03;5095313;28;20028;-78
2021/08/09 09:33:30;;;;;;;9.98;4.05;;;;;;;19.63;69.11;100898.34;5088470;28;20020;-74
2021/08/09 09:36:03;;;;;;;7.00;3.50;;;;;;;19.71;68.72;100894.75;5087928;28;20035;-77
2021/08/09 09:38:28;;;;;;;;;;;;;;;19.76;68.22;100893.75;5093287;28;20115;-79
2021/08/09 09:41:03;;;;;;;5.18;2.92;;;;;;;19.81;67.22;100882.50;5090726;28;20051;-77
2021/08/09 09:43:42;;;;;;;6.70;3.00;;;;;;;19.85;67.24;100888.97;5090703;28;20032;-75
2021/08/09 09:46:09;;;;;;;6.43;3.47;;;;;;;19.89;67.21;100898.25;5087109;28;20077;-77
2021/08/09 09:48:37;;;;;;;11.10;3.90;;;;;;;19.81;67.27;100888.03;5074231;28;20020;-78
2021/08/09 09:51:10;;;;;;;6.88;3.35;;;;;;;19.93;67.00;100899.19;5094374;28;20023;-78
2021/08/09 09:53:35;;;;;;;9.07;3.50;;;;;;;19.88;66.75;100899.38;5079883;28;20650;-78
2021/08/09 09:56:00;;;;;;;6.28;3.45;;;;;;;19.79;66.88;100898.63;5075677;28;20036;-77
2021/08/09 09:58:26;;;;;;;8.68;2.90;;;;;;;19.76;67.37;100902.06;5074653;28;20036;-74
2021/08/09 10:00:52;;;;;;;7.22;3.50;;;;;;;19.80;67.40;100910.50;5075564;28;20385;-78
2021/08/09 10:03:18;;;;;;;10.73;3.95;;;;;;;19.78;67.24;100912.78;5081286;28;20032;-79
2021/08/09 10:05:43;;;;;;;6.88;3.33;;;;;;;19.90;67.34;100908.16;5088018;28;20035;-79
2021/08/09 10:08:13;;;;;;;7.60;3.70;;;;;;;20.21;67.02;100904.22;5086857;28;20035;-78
2021/08/09 10:10:39;;;;;;;9.45;3.50;;;;;;;20.25;66.60;100910.72;5080667;28;20047;-78
2021/08/09 10:13:05;;;;;;;6.57;3.85;;;;;;;20.03;66.76;100908.28;5069057;28;20039;-80
2021/08/09 10:15:31;;;;;;;8.15;3.90;;;;;;;20.01;67.17;100905.03;5085514;28;20024;-81
2021/08/09 10:17:58;;;;;;;7.75;3.83;;;;;;;20.10;67.45;100903.00;5086570;28;20101;-79
2021/08/09 10:20:23;;;;;;;9.30;4.10;;;;;;;20.16;67.35;100907.19;5064183;28;20054;-81
2021/08/09 10:22:57;;;;;;;5.18;3.42;;;;;;;20.19;67.10;100917.59;5074500;28;20028;-79
2021/08/09 10:25:50;;;;;;;8.38;3.58;;;;;;;20.04;67.30;100909.88;5074135;28;20511;-78
2021/08/09 10:28:16;;;;;;;6.18;3.65;;;;;;;20.08;67.59;100914.41;5071123;28;20044;-79
2021/08/09 10:30:42;;;;;;;5.60;4.38;;;;;;;20.18;67.44;100915.97;5073999;28;20036;-80
2021/08/09 10:33:11;;;;;;;5.90;3.60;;;;;;;20.24;68.07;100922.13;5075687;28;20020;-79
2021/08/09 10:35:40;;;;;;;7.13;3.65;;;;;;;20.39;67.59;100933.41;5084371;28;20032;-80
2021/08/09 10:38:15;;;;;;;9.02;3.28;;;;;;;20.50;67.06;100930.25;5081660;28;20114;-78
2021/08/09 10:40:45;;;;;;;8.75;2.80;;;;;;;20.48;66.18;100933.34;5095689;28;20048;-79
2021/08/09 10:43:11;;;;;;;5.75;3.30;;;;;;;20.58;67.02;100934.94;5072275;28;20032;-79
2021/08/09 10:45:49;;;;;;;8.80;3.40;;;;;;;20.72;67.05;100929.94;5071797;28;20681;-80
2021/08/09 10:48:16;;;;;;;5.95;3.40;;;;;;;20.80;66.50;100931.81;5073147;28;20043;-81
2021/08/09 10:50:45;;;;;;;6.68;3.13;;;;;;;20.84;65.94;100932.78;5054848;28;20036;-80
2021/08/09 10:53:29;;;;;;;7.88;3.25;;;;;;;20.71;65.57;100928.31;5072885;28;20427;-81
2021/08/09 10:55:58;;;;;;;6.80;3.30;;;;;;;20.68;66.50;100953.09;5089388;28;20035;-80
2021/08/09 10:58:45;;;;;;;9.63;3.55;;;;;;;20.62;66.44;100933.09;5093906;28;20065;-79
2021/08/09 11:01:12;;;;;;;7.22;2.92;;;;;;;20.73;65.84;100933.50;5082239;28;20024;-76
2021/08/09 11:04:02;;;;;;;6.90;2.67;;;;;;;20.52;65.98;100930.72;5064715;28;20039;-75
2021/08/09 11:06:54;;;;;;;8.85;3.10;;;;;;;20.64;65.91;100932.78;5069719;28;20119;-75
2021/08/09 11:09:32;;;;;;;5.70;2.63;;;;;;;20.78;66.10;100925.00;5066422;28;20043;-75
2021/08/09 11:12:23;;;;;;;5.43;2.30;;;;;;;20.81;64.71;100922.34;5071625;28;20033;-75
2021/08/09 11:15:10;;;;;;;6.55;2.75;;;;;;;20.89;64.79;100934.50;5079369;28;20265;-76
2021/08/09 11:17:38;;;;;;;5.05;3.03;;;;;;;20.76;64.81;100936.44;5074035;28;20039;-75
2021/08/09 11:20:20;;;;;;;7.88;2.83;;;;;;;20.67;65.09;100932.91;5070823;28;20028;-76